sensor_id;sensor_type;location;lat;lon;timestamp;temperature;humidity
47521;DHT22;32291;52.010;4.446;2023-03-31T00:00:44;10.80;99.90
47521;DHT22;32291;52.010;4.446;2023-03-31T00:01:47;10.80;99.90
47521;DHT22;32291;52.010;4.446;2023-03-31T00:02:49;10.90;99.90
47521;DHT22;32291;52.010;4.446;2023-03-31T00:03:55;11.00;99.90
47521;DHT22;32291;52.010;4.446;2023-03-31T00:05:07;11.00;99.90
47521;DHT22;32291;52.010;4.446;2023-03-31T00:06:11;11.00;99.90
47521;DHT22;32291;52.010;4.446;2023-03-31T00:07:19;11.00;99.90
47521;DHT22;32291;52.010;4.446;2023-03-31T00:08:25;11.00;99.90
47521;DHT22;32291;52.010;4.446;2023-03-31T00:09:30;10.90;99.90
47521;DHT22;32291;52.010;4.446;2023-03-31T00:10:33;10.90;99.90
47521;DHT22;32291;52.010;4.446;2023-03-31T00:11:36;10.90;99.90
47521;DHT22;32291;52.010;4.446;2023-03-31T00:12:38;11.00;99.90
47521;DHT22;32291;52.010;4.446;2023-03-31T00:13:40;10.90;99.90
47521;DHT22;32291;52.010;4.446;2023-03-31T00:14:42;10.90;99.90
47521;DHT22;32291;52.010;4.446;2023-03-31T00:15:44;10.90;99.90
47521;DHT22;32291;52.010;4.446;2023-03-31T00:16:46;10.90;99.90
47521;DHT22;32291;52.010;4.446;2023-03-31T00:17:48;10.90;99.90
47521;DHT22;32291;52.010;4.446;2023-03-31T00:18:50;10.90;99.90
47521;DHT22;32291;52.010;4.446;2023-03-31T00:19:52;10.90;99.90
47521;DHT22;32291;52.010;4.446;2023-03-31T00:21:11;10.80;99.90
47521;DHT22;32291;52.010;4.446;2023-03-31T00:22:15;10.90;99.90
47521;DHT22;32291;52.010;4.446;2023-03-31T00:23:22;10.90;99.90
47521;DHT22;32291;52.010;4.446;2023-03-31T00:24:28;10.90;99.90
47521;DHT22;32291;52.010;4.446;2023-03-31T00:25:33;10.80;99.90
47521;DHT22;32291;52.010;4.446;2023-03-31T00:26:35;10.90;99.90
47521;DHT22;32291;52.010;4.446;2023-03-31T00:27:43;10.90;99.90
47521;DHT22;32291;52.010;4.446;2023-03-31T00:28:45;10.80;99.90
47521;DHT22;32291;52.010;4.446;2023-03-31T00:29:47;10.80;99.90
47521;DHT22;32291;52.010;4.446;2023-03-31T00:30:51;10.80;99.90
47521;DHT22;32291;52.010;4.446;2023-03-31T00:31:54;10.80;99.90
47521;DHT22;32291;52.010;4.446;2023-03-31T00:32:56;10.80;99.90
47521;DHT22;32291;52.010;4.446;2023-03-31T00:33:58;10.80;99.90
47521;DHT22;32291;52.010;4.446;2023-03-31T00:35:00;10.90;99.90
47521;DHT22;32291;52.010;4.446;2023-03-31T00:36:02;10.90;99.90
47521;DHT22;32291;52.010;4.446;2023-03-31T00:37:06;10.90;99.90
47521;DHT22;32291;52.010;4.446;2023-03-31T00:38:09;10.90;99.90
47521;DHT22;32291;52.010;4.446;2023-03-31T00:39:16;10.90;99.90
47521;DHT22;32291;52.010;4.446;2023-03-31T00:40:19;10.90;99.90
47521;DHT22;32291;52.010;4.446;2023-03-31T00:41:21;10.90;99.90
47521;DHT22;32291;52.010;4.446;2023-03-31T00:42:22;10.90;99.90
47521;DHT22;32291;52.010;4.446;2023-03-31T00:43:31;10.90;99.90
47521;DHT22;32291;52.010;4.446;2023-03-31T00:44:37;11.00;99.90
47521;DHT22;32291;52.010;4.446;2023-03-31T00:47:18;11.10;99.90
47521;DHT22;32291;52.010;4.446;2023-03-31T00:48:21;11.10;99.90
47521;DHT22;32291;52.010;4.446;2023-03-31T00:49:33;11.20;99.90
47521;DHT22;32291;52.010;4.446;2023-03-31T00:50:51;11.20;99.90
47521;DHT22;32291;52.010;4.446;2023-03-31T00:52:00;11.20;99.90
47521;DHT22;32291;52.010;4.446;2023-03-31T00:53:13;11.20;99.90
47521;DHT22;32291;52.010;4.446;2023-03-31T00:54:20;11.20;99.90
47521;DHT22;32291;52.010;4.446;2023-03-31T00:55:32;11.20;99.90
47521;DHT22;32291;52.010;4.446;2023-03-31T00:56:41;11.20;99.90
47521;DHT22;32291;52.010;4.446;2023-03-31T00:57:46;11.30;99.90
47521;DHT22;32291;52.010;4.446;2023-03-31T00:58:48;11.30;99.90
47521;DHT22;32291;52.010;4.446;2023-03-31T00:59:58;11.20;99.90
47521;DHT22;32291;52.010;4.446;2023-03-31T01:01:18;11.20;99.90
47521;DHT22;32291;52.010;4.446;2023-03-31T01:02:24;11.30;99.90
47521;DHT22;32291;52.010;4.446;2023-03-31T01:03:28;11.30;99.90
47521;DHT22;32291;52.010;4.446;2023-03-31T01:04:38;11.40;99.90
47521;DHT22;32291;52.010;4.446;2023-03-31T01:05:51;11.30;99.90
47521;DHT22;32291;52.010;4.446;2023-03-31T01:08:39;11.40;99.90
47521;DHT22;32291;52.010;4.446;2023-03-31T01:09:44;11.40;99.90
47521;DHT22;32291;52.010;4.446;2023-03-31T01:10:50;11.40;99.90
47521;DHT22;32291;52.010;4.446;2023-03-31T01:11:58;11.40;99.90
47521;DHT22;32291;52.010;4.446;2023-03-31T01:13:00;11.50;99.90
47521;DHT22;32291;52.010;4.446;2023-03-31T01:14:04;11.50;99.90
47521;DHT22;32291;52.010;4.446;2023-03-31T01:15:07;11.50;99.90
47521;DHT22;32291;52.010;4.446;2023-03-31T01:16:09;11.60;99.90
47521;DHT22;32291;52.010;4.446;2023-03-31T01:17:11;11.50;99.90
47521;DHT22;32291;52.010;4.446;2023-03-31T01:18:19;11.50;99.90
47521;DHT22;32291;52.010;4.446;2023-03-31T01:19:35;11.50;99.90
47521;DHT22;32291;52.010;4.446;2023-03-31T01:22:23;11.40;99.90
47521;DHT22;32291;52.010;4.446;2023-03-31T01:27:41;11.40;99.90
47521;DHT22;32291;52.010;4.446;2023-03-31T01:36:49;11.20;99.90
47521;DHT22;32291;52.010;4.446;2023-03-31T01:46:54;11.10;99.90
47521;DHT22;32291;52.010;4.446;2023-03-31T01:48:20;11.00;99.90
47521;DHT22;32291;52.010;4.446;2023-03-31T01:49:50;11.00;99.90
47521;DHT22;32291;52.010;4.446;2023-03-31T01:51:15;11.00;99.90
47521;DHT22;32291;52.010;4.446;2023-03-31T01:52:42;11.00;99.90
47521;DHT22;32291;52.010;4.446;2023-03-31T01:54:36;11.00;99.90
47521;DHT22;32291;52.010;4.446;2023-03-31T01:56:47;10.90;99.90
47521;DHT22;32291;52.010;4.446;2023-03-31T01:57:59;10.90;99.90
47521;DHT22;32291;52.010;4.446;2023-03-31T02:00:27;10.90;99.90
47521;DHT22;32291;52.010;4.446;2023-03-31T02:01:58;10.90;99.90
47521;DHT22;32291;52.010;4.446;2023-03-31T02:03:14;10.90;99.90
47521;DHT22;32291;52.010;4.446;2023-03-31T02:04:22;10.80;99.90
47521;DHT22;32291;52.010;4.446;2023-03-31T02:05:52;10.80;99.90
47521;DHT22;32291;52.010;4.446;2023-03-31T02:07:03;10.80;99.90
47521;DHT22;32291;52.010;4.446;2023-03-31T02:08:14;10.80;99.90
47521;DHT22;32291;52.010;4.446;2023-03-31T02:09:26;10.80;99.90
47521;DHT22;32291;52.010;4.446;2023-03-31T02:10:34;10.80;99.90
47521;DHT22;32291;52.010;4.446;2023-03-31T02:11:37;10.80;99.90
47521;DHT22;32291;52.010;4.446;2023-03-31T02:12:42;10.80;99.90
47521;DHT22;32291;52.010;4.446;2023-03-31T02:13:46;10.80;99.90
47521;DHT22;32291;52.010;4.446;2023-03-31T02:14:54;10.80;99.90
47521;DHT22;32291;52.010;4.446;2023-03-31T02:16:01;10.80;99.90
47521;DHT22;32291;52.010;4.446;2023-03-31T02:17:14;10.80;99.90
47521;DHT22;32291;52.010;4.446;2023-03-31T02:18:23;10.70;99.90
47521;DHT22;32291;52.010;4.446;2023-03-31T02:19:34;10.70;99.90
47521;DHT22;32291;52.010;4.446;2023-03-31T02:20:41;10.70;99.90
47521;DHT22;32291;52.010;4.446;2023-03-31T02:21:48;10.70;99.90
47521;DHT22;32291;52.010;4.446;2023-03-31T02:22:54;10.70;99.90
47521;DHT22;32291;52.010;4.446;2023-03-31T02:23:59;10.70;99.90
47521;DHT22;32291;52.010;4.446;2023-03-31T02:25:05;10.70;99.90
47521;DHT22;32291;52.010;4.446;2023-03-31T02:26:17;10.70;99.90
47521;DHT22;32291;52.010;4.446;2023-03-31T02:27:38;10.60;99.90
47521;DHT22;32291;52.010;4.446;2023-03-31T02:28:43;10.60;99.90
47521;DHT22;32291;52.010;4.446;2023-03-31T02:29:45;10.70;99.90
47521;DHT22;32291;52.010;4.446;2023-03-31T02:32:37;10.70;99.90
47521;DHT22;32291;52.010;4.446;2023-03-31T02:33:40;10.60;99.90
47521;DHT22;32291;52.010;4.446;2023-03-31T02:34:42;10.60;99.90
47521;DHT22;32291;52.010;4.446;2023-03-31T02:35:44;10.60;99.90
47521;DHT22;32291;52.010;4.446;2023-03-31T02:36:46;10.50;99.90
47521;DHT22;32291;52.010;4.446;2023-03-31T02:37:50;10.60;99.90
47521;DHT22;32291;52.010;4.446;2023-03-31T02:38:59;10.60;99.90
47521;DHT22;32291;52.010;4.446;2023-03-31T02:40:10;10.60;99.90
47521;DHT22;32291;52.010;4.446;2023-03-31T02:41:17;10.60;99.90
47521;DHT22;32291;52.010;4.446;2023-03-31T02:42:19;10.50;99.90
47521;DHT22;32291;52.010;4.446;2023-03-31T02:43:22;10.50;99.90
47521;DHT22;32291;52.010;4.446;2023-03-31T02:44:23;10.60;99.90
47521;DHT22;32291;52.010;4.446;2023-03-31T02:46:50;10.50;99.90
47521;DHT22;32291;52.010;4.446;2023-03-31T02:47:53;10.60;99.90
47521;DHT22;32291;52.010;4.446;2023-03-31T02:48:58;10.60;99.90
47521;DHT22;32291;52.010;4.446;2023-03-31T02:50:03;10.60;99.90
47521;DHT22;32291;52.010;4.446;2023-03-31T02:52:30;10.50;99.90
47521;DHT22;32291;52.010;4.446;2023-03-31T02:54:16;10.50;99.90
47521;DHT22;32291;52.010;4.446;2023-03-31T02:55:41;10.50;99.90
47521;DHT22;32291;52.010;4.446;2023-03-31T03:01:39;10.40;99.90
47521;DHT22;32291;52.010;4.446;2023-03-31T03:03:38;10.40;99.90
47521;DHT22;32291;52.010;4.446;2023-03-31T03:06:35;10.40;99.90
47521;DHT22;32291;52.010;4.446;2023-03-31T03:07:43;10.30;99.90
47521;DHT22;32291;52.010;4.446;2023-03-31T03:15:43;10.30;99.90
47521;DHT22;32291;52.010;4.446;2023-03-31T03:17:01;10.30;99.90
47521;DHT22;32291;52.010;4.446;2023-03-31T03:18:09;10.20;99.90
47521;DHT22;32291;52.010;4.446;2023-03-31T03:19:18;10.20;99.90
47521;DHT22;32291;52.010;4.446;2023-03-31T03:20:22;10.20;99.90
47521;DHT22;32291;52.010;4.446;2023-03-31T03:21:23;10.10;99.90
47521;DHT22;32291;52.010;4.446;2023-03-31T03:22:26;10.10;99.90
47521;DHT22;32291;52.010;4.446;2023-03-31T03:23:28;10.10;99.90
47521;DHT22;32291;52.010;4.446;2023-03-31T03:24:30;10.00;99.90
47521;DHT22;32291;52.010;4.446;2023-03-31T03:25:34;10.00;99.90
47521;DHT22;32291;52.010;4.446;2023-03-31T03:26:36;10.00;99.90
47521;DHT22;32291;52.010;4.446;2023-03-31T03:27:38;10.00;99.90
47521;DHT22;32291;52.010;4.446;2023-03-31T03:28:40;10.00;99.90
47521;DHT22;32291;52.010;4.446;2023-03-31T03:29:42;10.00;99.90
47521;DHT22;32291;52.010;4.446;2023-03-31T03:30:44;9.90;99.90
47521;DHT22;32291;52.010;4.446;2023-03-31T03:31:46;9.90;99.90
47521;DHT22;32291;52.010;4.446;2023-03-31T03:32:48;9.90;99.90
47521;DHT22;32291;52.010;4.446;2023-03-31T03:33:51;10.00;99.90
47521;DHT22;32291;52.010;4.446;2023-03-31T03:34:53;9.90;99.90
47521;DHT22;32291;52.010;4.446;2023-03-31T03:35:54;9.90;99.90
47521;DHT22;32291;52.010;4.446;2023-03-31T03:36:56;9.90;99.90
47521;DHT22;32291;52.010;4.446;2023-03-31T03:37:58;9.90;99.90
47521;DHT22;32291;52.010;4.446;2023-03-31T03:39:00;9.90;99.90
47521;DHT22;32291;52.010;4.446;2023-03-31T03:40:02;9.90;99.90
47521;DHT22;32291;52.010;4.446;2023-03-31T03:41:06;9.90;99.90
47521;DHT22;32291;52.010;4.446;2023-03-31T03:42:08;9.90;99.90
47521;DHT22;32291;52.010;4.446;2023-03-31T03:43:09;9.90;99.90
47521;DHT22;32291;52.010;4.446;2023-03-31T03:44:11;9.90;99.90
47521;DHT22;32291;52.010;4.446;2023-03-31T03:45:13;10.00;99.90
47521;DHT22;32291;52.010;4.446;2023-03-31T03:46:14;10.00;99.90
47521;DHT22;32291;52.010;4.446;2023-03-31T03:47:16;10.00;99.90
47521;DHT22;32291;52.010;4.446;2023-03-31T03:48:18;9.90;99.90
47521;DHT22;32291;52.010;4.446;2023-03-31T03:49:21;9.90;99.90
47521;DHT22;32291;52.010;4.446;2023-03-31T03:50:23;9.90;99.90
47521;DHT22;32291;52.010;4.446;2023-03-31T03:51:24;9.90;99.90
47521;DHT22;32291;52.010;4.446;2023-03-31T03:52:26;10.00;99.90
47521;DHT22;32291;52.010;4.446;2023-03-31T03:53:28;10.00;99.90
47521;DHT22;32291;52.010;4.446;2023-03-31T03:54:30;10.00;99.90
47521;DHT22;32291;52.010;4.446;2023-03-31T03:55:32;9.90;99.90
47521;DHT22;32291;52.010;4.446;2023-03-31T03:56:34;9.90;99.90
47521;DHT22;32291;52.010;4.446;2023-03-31T03:57:36;10.00;99.90
47521;DHT22;32291;52.010;4.446;2023-03-31T03:58:37;10.00;99.90
47521;DHT22;32291;52.010;4.446;2023-03-31T03:59:39;10.00;99.90
47521;DHT22;32291;52.010;4.446;2023-03-31T04:00:41;10.00;99.90
47521;DHT22;32291;52.010;4.446;2023-03-31T04:01:43;10.00;99.90
47521;DHT22;32291;52.010;4.446;2023-03-31T04:02:44;10.00;99.90
47521;DHT22;32291;52.010;4.446;2023-03-31T04:03:46;10.10;99.90
47521;DHT22;32291;52.010;4.446;2023-03-31T04:04:48;10.10;99.90
47521;DHT22;32291;52.010;4.446;2023-03-31T04:05:49;10.10;99.90
47521;DHT22;32291;52.010;4.446;2023-03-31T04:06:51;10.10;99.90
47521;DHT22;32291;52.010;4.446;2023-03-31T04:07:53;10.10;99.90
47521;DHT22;32291;52.010;4.446;2023-03-31T04:08:54;10.10;99.90
47521;DHT22;32291;52.010;4.446;2023-03-31T04:09:56;10.20;99.90
47521;DHT22;32291;52.010;4.446;2023-03-31T04:10:58;10.20;99.90
47521;DHT22;32291;52.010;4.446;2023-03-31T04:11:59;10.20;99.90
47521;DHT22;32291;52.010;4.446;2023-03-31T04:13:01;10.20;99.90
47521;DHT22;32291;52.010;4.446;2023-03-31T04:14:03;10.20;99.90
47521;DHT22;32291;52.010;4.446;2023-03-31T04:15:05;10.20;99.90
47521;DHT22;32291;52.010;4.446;2023-03-31T04:16:07;10.20;99.90
47521;DHT22;32291;52.010;4.446;2023-03-31T04:17:09;10.20;99.90
47521;DHT22;32291;52.010;4.446;2023-03-31T04:18:15;10.20;99.90
47521;DHT22;32291;52.010;4.446;2023-03-31T04:19:23;10.20;99.90
47521;DHT22;32291;52.010;4.446;2023-03-31T04:20:26;10.30;99.90
47521;DHT22;32291;52.010;4.446;2023-03-31T04:21:31;10.20;99.90
47521;DHT22;32291;52.010;4.446;2023-03-31T04:22:35;10.30;99.90
47521;DHT22;32291;52.010;4.446;2023-03-31T04:23:41;10.30;99.90
47521;DHT22;32291;52.010;4.446;2023-03-31T04:24:46;10.20;99.90
47521;DHT22;32291;52.010;4.446;2023-03-31T04:25:53;10.20;99.90
47521;DHT22;32291;52.010;4.446;2023-03-31T04:26:55;10.30;99.90
47521;DHT22;32291;52.010;4.446;2023-03-31T04:27:57;10.30;99.90
47521;DHT22;32291;52.010;4.446;2023-03-31T04:28:59;10.30;99.90
47521;DHT22;32291;52.010;4.446;2023-03-31T04:30:01;10.30;99.90
47521;DHT22;32291;52.010;4.446;2023-03-31T04:31:03;10.30;99.90
47521;DHT22;32291;52.010;4.446;2023-03-31T04:32:09;10.20;99.90
47521;DHT22;32291;52.010;4.446;2023-03-31T04:33:15;10.30;99.90
47521;DHT22;32291;52.010;4.446;2023-03-31T04:34:17;10.30;99.90
47521;DHT22;32291;52.010;4.446;2023-03-31T04:35:24;10.30;99.90
47521;DHT22;32291;52.010;4.446;2023-03-31T04:36:28;10.30;99.90
47521;DHT22;32291;52.010;4.446;2023-03-31T04:37:32;10.30;99.90
47521;DHT22;32291;52.010;4.446;2023-03-31T04:38:35;10.20;99.90
47521;DHT22;32291;52.010;4.446;2023-03-31T04:39:37;10.30;99.90
47521;DHT22;32291;52.010;4.446;2023-03-31T04:40:38;10.30;99.90
47521;DHT22;32291;52.010;4.446;2023-03-31T04:41:41;10.20;99.90
47521;DHT22;32291;52.010;4.446;2023-03-31T04:42:44;10.20;99.90
47521;DHT22;32291;52.010;4.446;2023-03-31T04:43:45;10.30;99.90
47521;DHT22;32291;52.010;4.446;2023-03-31T04:44:48;10.30;99.90
47521;DHT22;32291;52.010;4.446;2023-03-31T04:45:49;10.20;99.90
47521;DHT22;32291;52.010;4.446;2023-03-31T04:46:52;10.30;99.90
47521;DHT22;32291;52.010;4.446;2023-03-31T04:47:53;10.20;99.90
47521;DHT22;32291;52.010;4.446;2023-03-31T04:48:55;10.30;99.90
47521;DHT22;32291;52.010;4.446;2023-03-31T04:49:59;10.30;99.90
47521;DHT22;32291;52.010;4.446;2023-03-31T04:51:01;10.30;99.90
47521;DHT22;32291;52.010;4.446;2023-03-31T04:52:03;10.30;99.90
47521;DHT22;32291;52.010;4.446;2023-03-31T04:53:05;10.30;99.90
47521;DHT22;32291;52.010;4.446;2023-03-31T04:54:07;10.30;99.90
47521;DHT22;32291;52.010;4.446;2023-03-31T04:55:09;10.30;99.90
47521;DHT22;32291;52.010;4.446;2023-03-31T04:56:11;10.30;99.90
47521;DHT22;32291;52.010;4.446;2023-03-31T04:57:13;10.30;99.90
47521;DHT22;32291;52.010;4.446;2023-03-31T04:58:15;10.30;99.90
47521;DHT22;32291;52.010;4.446;2023-03-31T04:59:16;10.30;99.90
47521;DHT22;32291;52.010;4.446;2023-03-31T05:00:19;10.20;99.90
47521;DHT22;32291;52.010;4.446;2023-03-31T05:01:22;10.20;99.90
47521;DHT22;32291;52.010;4.446;2023-03-31T05:02:24;10.30;99.90
47521;DHT22;32291;52.010;4.446;2023-03-31T05:03:25;10.30;99.90
47521;DHT22;32291;52.010;4.446;2023-03-31T05:04:27;10.30;99.90
47521;DHT22;32291;52.010;4.446;2023-03-31T05:05:28;10.20;99.90
47521;DHT22;32291;52.010;4.446;2023-03-31T05:06:30;10.30;99.90
47521;DHT22;32291;52.010;4.446;2023-03-31T05:07:32;10.30;99.90
47521;DHT22;32291;52.010;4.446;2023-03-31T05:08:34;10.30;99.90
47521;DHT22;32291;52.010;4.446;2023-03-31T05:09:36;10.30;99.90
47521;DHT22;32291;52.010;4.446;2023-03-31T05:10:38;10.30;99.90
47521;DHT22;32291;52.010;4.446;2023-03-31T05:11:39;10.20;99.90
47521;DHT22;32291;52.010;4.446;2023-03-31T05:12:41;10.20;99.90
47521;DHT22;32291;52.010;4.446;2023-03-31T05:13:43;10.30;99.90
47521;DHT22;32291;52.010;4.446;2023-03-31T05:14:44;10.30;99.90
47521;DHT22;32291;52.010;4.446;2023-03-31T05:15:46;10.30;99.90
47521;DHT22;32291;52.010;4.446;2023-03-31T05:16:50;10.20;99.90
47521;DHT22;32291;52.010;4.446;2023-03-31T05:17:52;10.20;99.90
47521;DHT22;32291;52.010;4.446;2023-03-31T05:18:54;10.20;99.90
47521;DHT22;32291;52.010;4.446;2023-03-31T05:19:55;10.20;99.90
47521;DHT22;32291;52.010;4.446;2023-03-31T05:21:07;10.20;99.90
47521;DHT22;32291;52.010;4.446;2023-03-31T05:22:14;10.20;99.90
47521;DHT22;32291;52.010;4.446;2023-03-31T05:23:17;10.30;99.90
47521;DHT22;32291;52.010;4.446;2023-03-31T05:24:19;10.20;99.90
47521;DHT22;32291;52.010;4.446;2023-03-31T05:25:21;10.30;99.90
47521;DHT22;32291;52.010;4.446;2023-03-31T05:26:24;10.30;99.90
47521;DHT22;32291;52.010;4.446;2023-03-31T05:27:26;10.20;99.90
47521;DHT22;32291;52.010;4.446;2023-03-31T05:28:27;10.30;99.90
47521;DHT22;32291;52.010;4.446;2023-03-31T05:29:29;10.30;99.90
47521;DHT22;32291;52.010;4.446;2023-03-31T05:30:31;10.30;99.90
47521;DHT22;32291;52.010;4.446;2023-03-31T05:31:33;10.20;99.90
47521;DHT22;32291;52.010;4.446;2023-03-31T05:32:35;10.20;99.90
47521;DHT22;32291;52.010;4.446;2023-03-31T05:33:37;10.20;99.90
47521;DHT22;32291;52.010;4.446;2023-03-31T05:34:41;10.20;99.90
47521;DHT22;32291;52.010;4.446;2023-03-31T05:35:43;10.20;99.90
47521;DHT22;32291;52.010;4.446;2023-03-31T05:36:45;10.20;99.90
47521;DHT22;32291;52.010;4.446;2023-03-31T05:37:48;10.20;99.90
47521;DHT22;32291;52.010;4.446;2023-03-31T05:38:50;10.20;99.90
47521;DHT22;32291;52.010;4.446;2023-03-31T05:39:52;10.20;99.90
47521;DHT22;32291;52.010;4.446;2023-03-31T05:40:55;10.20;99.90
47521;DHT22;32291;52.010;4.446;2023-03-31T05:41:56;10.20;99.90
47521;DHT22;32291;52.010;4.446;2023-03-31T05:42:58;10.10;99.90
47521;DHT22;32291;52.010;4.446;2023-03-31T05:44:00;10.20;99.90
47521;DHT22;32291;52.010;4.446;2023-03-31T05:45:05;10.20;99.90
47521;DHT22;32291;52.010;4.446;2023-03-31T05:46:08;10.20;99.90
47521;DHT22;32291;52.010;4.446;2023-03-31T05:47:11;10.20;99.90
47521;DHT22;32291;52.010;4.446;2023-03-31T05:48:13;10.30;99.90
47521;DHT22;32291;52.010;4.446;2023-03-31T05:49:15;10.20;99.90
47521;DHT22;32291;52.010;4.446;2023-03-31T05:50:17;10.20;99.90
47521;DHT22;32291;52.010;4.446;2023-03-31T05:51:19;10.20;99.90
47521;DHT22;32291;52.010;4.446;2023-03-31T05:52:21;10.20;99.90
47521;DHT22;32291;52.010;4.446;2023-03-31T05:53:23;10.20;99.90
47521;DHT22;32291;52.010;4.446;2023-03-31T05:54:26;10.20;99.90
47521;DHT22;32291;52.010;4.446;2023-03-31T05:55:28;10.20;99.90
47521;DHT22;32291;52.010;4.446;2023-03-31T05:56:30;10.10;99.90
47521;DHT22;32291;52.010;4.446;2023-03-31T05:57:31;10.10;99.90
47521;DHT22;32291;52.010;4.446;2023-03-31T05:58:34;10.10;99.90
47521;DHT22;32291;52.010;4.446;2023-03-31T05:59:36;10.10;99.90
47521;DHT22;32291;52.010;4.446;2023-03-31T06:00:38;10.10;99.90
47521;DHT22;32291;52.010;4.446;2023-03-31T06:01:40;10.10;99.90
47521;DHT22;32291;52.010;4.446;2023-03-31T06:02:41;10.10;99.90
47521;DHT22;32291;52.010;4.446;2023-03-31T06:03:44;10.10;99.90
47521;DHT22;32291;52.010;4.446;2023-03-31T06:04:46;10.10;99.90
47521;DHT22;32291;52.010;4.446;2023-03-31T06:05:48;10.10;99.90
47521;DHT22;32291;52.010;4.446;2023-03-31T06:06:50;10.10;99.90
47521;DHT22;32291;52.010;4.446;2023-03-31T06:07:52;10.10;99.90
47521;DHT22;32291;52.010;4.446;2023-03-31T06:08:54;10.10;99.90
47521;DHT22;32291;52.010;4.446;2023-03-31T06:09:56;10.10;99.90
47521;DHT22;32291;52.010;4.446;2023-03-31T06:10:58;10.10;99.90
47521;DHT22;32291;52.010;4.446;2023-03-31T06:12:00;10.10;99.90
47521;DHT22;32291;52.010;4.446;2023-03-31T06:13:02;10.10;99.90
47521;DHT22;32291;52.010;4.446;2023-03-31T06:14:04;10.10;99.90
47521;DHT22;32291;52.010;4.446;2023-03-31T06:15:06;10.10;99.90
47521;DHT22;32291;52.010;4.446;2023-03-31T06:16:10;10.10;99.90
47521;DHT22;32291;52.010;4.446;2023-03-31T06:17:13;10.10;99.90
47521;DHT22;32291;52.010;4.446;2023-03-31T06:18:14;10.10;99.90
47521;DHT22;32291;52.010;4.446;2023-03-31T06:19:16;10.10;99.90
47521;DHT22;32291;52.010;4.446;2023-03-31T06:20:18;10.10;99.90
47521;DHT22;32291;52.010;4.446;2023-03-31T06:21:20;10.10;99.90
47521;DHT22;32291;52.010;4.446;2023-03-31T06:22:22;10.10;99.90
47521;DHT22;32291;52.010;4.446;2023-03-31T06:23:24;10.10;99.90
47521;DHT22;32291;52.010;4.446;2023-03-31T06:24:27;10.10;99.90
47521;DHT22;32291;52.010;4.446;2023-03-31T06:25:28;10.10;99.90
47521;DHT22;32291;52.010;4.446;2023-03-31T06:26:30;10.10;99.90
47521;DHT22;32291;52.010;4.446;2023-03-31T06:27:31;10.10;99.90
47521;DHT22;32291;52.010;4.446;2023-03-31T06:28:34;10.10;99.90
47521;DHT22;32291;52.010;4.446;2023-03-31T06:29:36;10.10;99.90
47521;DHT22;32291;52.010;4.446;2023-03-31T06:30:38;10.20;99.90
47521;DHT22;32291;52.010;4.446;2023-03-31T06:31:40;10.20;99.90
47521;DHT22;32291;52.010;4.446;2023-03-31T06:32:42;10.10;99.90
47521;DHT22;32291;52.010;4.446;2023-03-31T06:33:44;10.20;99.90
47521;DHT22;32291;52.010;4.446;2023-03-31T06:34:45;10.20;99.90
47521;DHT22;32291;52.010;4.446;2023-03-31T06:35:48;10.20;99.90
47521;DHT22;32291;52.010;4.446;2023-03-31T06:36:49;10.20;99.90
47521;DHT22;32291;52.010;4.446;2023-03-31T06:37:51;10.20;99.90
47521;DHT22;32291;52.010;4.446;2023-03-31T06:38:53;10.20;99.90
47521;DHT22;32291;52.010;4.446;2023-03-31T06:39:55;10.20;99.90
47521;DHT22;32291;52.010;4.446;2023-03-31T06:40:57;10.20;99.90
47521;DHT22;32291;52.010;4.446;2023-03-31T06:41:58;10.20;99.90
47521;DHT22;32291;52.010;4.446;2023-03-31T06:43:00;10.20;99.90
47521;DHT22;32291;52.010;4.446;2023-03-31T06:44:02;10.20;99.90
47521;DHT22;32291;52.010;4.446;2023-03-31T06:45:04;10.20;99.90
47521;DHT22;32291;52.010;4.446;2023-03-31T06:46:06;10.20;99.90
47521;DHT22;32291;52.010;4.446;2023-03-31T06:47:07;10.40;99.90
47521;DHT22;32291;52.010;4.446;2023-03-31T06:48:09;10.30;99.90
47521;DHT22;32291;52.010;4.446;2023-03-31T06:49:11;10.30;99.90
47521;DHT22;32291;52.010;4.446;2023-03-31T06:50:13;10.30;99.90
47521;DHT22;32291;52.010;4.446;2023-03-31T06:51:15;10.30;99.90
47521;DHT22;32291;52.010;4.446;2023-03-31T06:52:17;10.30;99.90
47521;DHT22;32291;52.010;4.446;2023-03-31T06:53:19;10.30;99.90
47521;DHT22;32291;52.010;4.446;2023-03-31T06:54:22;10.30;99.90
47521;DHT22;32291;52.010;4.446;2023-03-31T06:55:24;10.40;99.90
47521;DHT22;32291;52.010;4.446;2023-03-31T06:56:26;10.40;99.90
47521;DHT22;32291;52.010;4.446;2023-03-31T06:57:28;10.40;99.90
47521;DHT22;32291;52.010;4.446;2023-03-31T06:58:32;10.40;99.90
47521;DHT22;32291;52.010;4.446;2023-03-31T06:59:33;10.40;99.90
47521;DHT22;32291;52.010;4.446;2023-03-31T07:00:35;10.40;99.90
47521;DHT22;32291;52.010;4.446;2023-03-31T07:01:37;10.40;99.90
47521;DHT22;32291;52.010;4.446;2023-03-31T07:02:39;10.40;99.90
47521;DHT22;32291;52.010;4.446;2023-03-31T07:03:40;10.40;99.90
47521;DHT22;32291;52.010;4.446;2023-03-31T07:04:42;10.40;99.90
47521;DHT22;32291;52.010;4.446;2023-03-31T07:05:51;10.40;99.90
47521;DHT22;32291;52.010;4.446;2023-03-31T07:06:54;10.40;99.90
47521;DHT22;32291;52.010;4.446;2023-03-31T07:07:58;10.40;99.90
47521;DHT22;32291;52.010;4.446;2023-03-31T07:09:00;10.40;99.90
47521;DHT22;32291;52.010;4.446;2023-03-31T07:10:02;10.40;99.90
47521;DHT22;32291;52.010;4.446;2023-03-31T07:11:04;10.40;99.90
47521;DHT22;32291;52.010;4.446;2023-03-31T07:12:06;10.50;99.90
47521;DHT22;32291;52.010;4.446;2023-03-31T07:13:08;10.50;99.90
47521;DHT22;32291;52.010;4.446;2023-03-31T07:14:10;10.50;99.90
47521;DHT22;32291;52.010;4.446;2023-03-31T07:15:12;10.50;99.90
47521;DHT22;32291;52.010;4.446;2023-03-31T07:16:14;10.60;99.90
47521;DHT22;32291;52.010;4.446;2023-03-31T07:17:16;10.60;99.90
47521;DHT22;32291;52.010;4.446;2023-03-31T07:18:18;10.70;99.90
47521;DHT22;32291;52.010;4.446;2023-03-31T07:19:20;10.70;99.90
47521;DHT22;32291;52.010;4.446;2023-03-31T07:20:23;10.80;99.90
47521;DHT22;32291;52.010;4.446;2023-03-31T07:21:25;10.80;99.90
47521;DHT22;32291;52.010;4.446;2023-03-31T07:22:26;10.80;99.90
47521;DHT22;32291;52.010;4.446;2023-03-31T07:23:28;10.90;99.90
47521;DHT22;32291;52.010;4.446;2023-03-31T07:24:29;10.90;99.90
47521;DHT22;32291;52.010;4.446;2023-03-31T07:25:31;10.90;99.90
47521;DHT22;32291;52.010;4.446;2023-03-31T07:26:33;10.90;99.90
47521;DHT22;32291;52.010;4.446;2023-03-31T07:27:36;10.90;99.90
47521;DHT22;32291;52.010;4.446;2023-03-31T07:28:38;10.90;99.90
47521;DHT22;32291;52.010;4.446;2023-03-31T07:29:40;10.90;99.90
47521;DHT22;32291;52.010;4.446;2023-03-31T07:30:43;10.90;99.90
47521;DHT22;32291;52.010;4.446;2023-03-31T07:31:46;10.90;99.90
47521;DHT22;32291;52.010;4.446;2023-03-31T07:32:49;10.90;99.90
47521;DHT22;32291;52.010;4.446;2023-03-31T07:33:52;10.90;99.90
47521;DHT22;32291;52.010;4.446;2023-03-31T07:34:54;10.90;99.90